createdAt,value
2018-08-23T00:01:31.416Z,7.50
2018-08-23T00:04:13.673Z,7.90
2018-08-23T00:07:02.039Z,7.27
2018-08-23T00:09:33.476Z,7.80
2018-08-23T00:12:00.880Z,8.60
2018-08-23T00:14:28.185Z,7.53
2018-08-23T00:16:55.519Z,7.60
2018-08-23T00:19:22.906Z,7.30
2018-08-23T00:21:51.041Z,7.63
2018-08-23T00:24:20.633Z,8.40
2018-08-23T00:26:52.223Z,7.13
2018-08-23T00:29:26.501Z,7.33
2018-08-23T00:31:55.687Z,8.03
2018-08-23T00:34:24.538Z,7.07
2018-08-23T00:36:51.936Z,7.13
2018-08-23T00:39:19.272Z,7.83
2018-08-23T00:41:50.987Z,8.40
2018-08-23T00:44:18.579Z,8.40
2018-08-23T00:46:45.861Z,7.40
2018-08-23T00:49:13.664Z,9.50
2018-08-23T00:51:41.243Z,8.70
2018-08-23T00:54:08.620Z,7.93
2018-08-23T00:56:35.935Z,8.30
2018-08-23T00:59:03.987Z,7.87
2018-08-23T01:01:32.094Z,8.40
2018-08-23T01:03:59.457Z,8.10
2018-08-23T01:06:32.274Z,8.10
2018-08-23T01:08:59.634Z,8.10
2018-08-23T01:11:27.336Z,8.50
2018-08-23T01:13:54.643Z,8.23
2018-08-23T01:16:21.949Z,9.10
2018-08-23T01:18:49.320Z,9.37
2018-08-23T01:21:16.662Z,7.93
2018-08-23T01:23:44.274Z,8.80
2018-08-23T01:26:11.636Z,8.63
2018-08-23T01:28:38.930Z,8.23
2018-08-23T01:31:14.714Z,8.20
2018-08-23T01:33:42.088Z,8.60
2018-08-23T01:36:09.515Z,7.97
2018-08-23T01:38:36.846Z,7.80
2018-08-23T01:41:09.632Z,8.30
2018-08-23T01:43:36.979Z,7.80
2018-08-23T01:46:04.269Z,8.57
2018-08-23T01:48:32.966Z,8.17
2018-08-23T01:51:00.269Z,8.13
2018-08-23T01:53:32.230Z,8.40
2018-08-23T01:55:59.543Z,8.70
2018-08-23T01:58:27.144Z,7.80
2018-08-23T02:01:03.211Z,8.00
2018-08-23T02:03:30.516Z,8.27
2018-08-23T02:05:57.924Z,7.43
2018-08-23T02:08:25.288Z,8.07
2018-08-23T02:10:52.624Z,8.07
2018-08-23T02:13:24.559Z,7.57
2018-08-23T02:15:51.841Z,8.30
2018-08-23T02:18:19.132Z,8.17
2018-08-23T02:20:46.535Z,9.00
2018-08-23T02:23:14.297Z,7.60
2018-08-23T02:25:41.625Z,8.40
2018-08-23T02:28:10.028Z,8.10
2018-08-23T02:30:56.692Z,7.90
2018-08-23T02:33:25.231Z,8.83
2018-08-23T02:36:29.932Z,8.97
2018-08-23T02:38:58.774Z,9.03
2018-08-23T02:41:26.098Z,8.50
2018-08-23T02:43:53.452Z,8.10
2018-08-23T02:46:20.813Z,7.83
2018-08-23T02:48:48.106Z,8.90
2018-08-23T02:51:15.399Z,7.90
2018-08-23T02:53:44.081Z,8.90
2018-08-23T02:56:13.582Z,8.97
2018-08-23T02:58:46.653Z,8.17
2018-08-23T03:01:13.984Z,8.73
2018-08-23T03:03:45.819Z,8.00
2018-08-23T03:06:13.474Z,7.97
2018-08-23T03:08:43.082Z,8.53
2018-08-23T03:11:10.434Z,9.17
2018-08-23T03:13:40.801Z,9.37
2018-08-23T03:16:08.387Z,8.50
2018-08-23T03:18:35.696Z,8.30
2018-08-23T03:21:04.499Z,8.50
2018-08-23T03:23:31.837Z,8.83
2018-08-23T03:25:59.212Z,9.10
2018-08-23T03:28:26.638Z,8.93
2018-08-23T03:31:00.274Z,8.50
2018-08-23T03:33:28.114Z,9.07
2018-08-23T03:35:55.505Z,8.43
2018-08-23T03:38:22.803Z,9.00
2018-08-23T03:40:50.138Z,9.80
2018-08-23T03:43:17.466Z,9.27
2018-08-23T03:45:44.767Z,8.60
2018-08-23T03:48:12.094Z,8.37
2018-08-23T03:50:45.093Z,8.80
2018-08-23T03:53:12.355Z,9.03
2018-08-23T03:55:39.712Z,8.80
2018-08-23T03:58:07.077Z,9.53
2018-08-23T04:00:39.826Z,9.00
2018-08-23T04:03:13.988Z,9.53
2018-08-23T04:05:41.326Z,9.53
2018-08-23T04:08:08.687Z,9.10
2018-08-23T04:10:36.081Z,9.87
2018-08-23T04:13:03.412Z,9.50
2018-08-23T04:15:31.581Z,8.90
2018-08-23T04:18:03.101Z,7.90
2018-08-23T04:20:30.424Z,9.17
2018-08-23T04:22:57.806Z,8.87
2018-08-23T04:25:25.038Z,8.80
2018-08-23T04:27:52.371Z,8.63
2018-08-23T04:30:19.795Z,9.43
2018-08-23T04:32:48.921Z,9.70
2018-08-23T04:35:19.509Z,9.10
2018-08-23T04:37:47.081Z,9.90
2018-08-23T04:40:14.460Z,9.13
2018-08-23T04:42:41.737Z,9.27
2018-08-23T04:45:09.685Z,9.20
2018-08-23T04:47:41.518Z,9.30
2018-08-23T04:50:08.841Z,9.30
2018-08-23T04:52:36.130Z,9.83
2018-08-23T04:55:03.476Z,9.43
2018-08-23T04:57:30.813Z,9.67
2018-08-23T04:59:58.225Z,8.60
2018-08-23T05:02:25.587Z,9.70
2018-08-23T05:04:52.924Z,10.07
2018-08-23T05:07:20.244Z,8.90
2018-08-23T05:09:47.559Z,10.40
2018-08-23T05:12:15.143Z,9.07
2018-08-23T05:14:42.786Z,9.63
2018-08-23T05:17:10.109Z,8.50
2018-08-23T05:19:37.471Z,8.90
2018-08-23T05:22:04.818Z,9.20
2018-08-23T05:24:32.191Z,9.40
2018-08-23T05:26:59.549Z,10.10
2018-08-23T05:29:26.855Z,9.87
2018-08-23T05:31:54.665Z,9.77
2018-08-23T05:34:22.023Z,9.17
2018-08-23T05:36:49.319Z,9.47
2018-08-23T05:39:16.684Z,9.27
2018-08-23T05:41:44.254Z,8.80
2018-08-23T05:44:20.988Z,8.47
2018-08-23T05:46:50.751Z,8.93
2018-08-23T05:49:18.323Z,9.13
2018-08-23T05:51:45.768Z,9.70
2018-08-23T05:54:13.245Z,8.07
2018-08-23T05:56:40.831Z,9.63
2018-08-23T05:59:14.100Z,9.00
2018-08-23T06:01:41.892Z,8.47
2018-08-23T06:04:09.558Z,8.13
2018-08-23T06:06:36.928Z,8.37
2018-08-23T06:09:06.058Z,8.93
2018-08-23T06:11:33.439Z,8.40
2018-08-23T06:14:00.752Z,8.77
2018-08-23T06:16:28.638Z,9.37
2018-08-23T06:18:55.932Z,8.40
2018-08-23T06:21:23.240Z,8.47
2018-08-23T06:23:54.643Z,8.20
2018-08-23T06:26:28.252Z,7.97
2018-08-23T06:28:55.634Z,7.77
2018-08-23T06:31:22.973Z,8.80
2018-08-23T06:33:50.444Z,8.60
2018-08-23T06:36:17.706Z,7.27
2018-08-23T06:38:48.418Z,8.90
2018-08-23T06:41:15.719Z,7.83
2018-08-23T06:43:43.029Z,7.80
2018-08-23T06:46:10.354Z,7.77
2018-08-23T06:48:37.760Z,7.83
2018-08-23T06:51:09.651Z,8.07
2018-08-23T06:53:42.972Z,7.13
2018-08-23T06:56:10.309Z,7.63
2018-08-23T06:58:37.703Z,7.40
2018-08-23T07:01:09.288Z,6.60
2018-08-23T07:03:41.139Z,7.57
2018-08-23T07:06:08.570Z,7.77
2018-08-23T07:08:35.874Z,7.00
2018-08-23T07:11:10.807Z,7.03
2018-08-23T07:13:38.124Z,7.10
2018-08-23T07:16:05.439Z,7.10
2018-08-23T07:18:33.410Z,8.30
2018-08-23T07:21:00.786Z,7.60
2018-08-23T07:23:31.064Z,6.73
2018-08-23T07:25:58.401Z,6.20
2018-08-23T07:28:25.748Z,7.27
2018-08-23T07:30:54.043Z,6.80
2018-08-23T07:33:21.407Z,6.67
2018-08-23T07:35:53.217Z,7.03
2018-08-23T07:38:20.545Z,6.70
2018-08-23T07:40:47.852Z,7.13
2018-08-23T07:43:15.189Z,6.30
2018-08-23T07:45:42.493Z,6.63
2018-08-23T07:48:09.770Z,6.90
2018-08-23T07:50:37.145Z,6.83
2018-08-23T07:53:04.698Z,6.83
2018-08-23T07:55:31.890Z,6.33
2018-08-23T07:57:59.570Z,6.67
2018-08-23T08:00:28.719Z,6.23
2018-08-23T08:02:56.074Z,6.73
2018-08-23T08:05:28.052Z,6.57
2018-08-23T08:07:55.373Z,6.00
2018-08-23T08:10:22.684Z,5.90
2018-08-23T08:12:54.328Z,6.20
2018-08-23T08:15:21.878Z,5.80
2018-08-23T08:17:49.068Z,5.40
2018-08-23T08:20:16.425Z,6.30
2018-08-23T08:22:43.785Z,5.70
2018-08-23T08:25:17.200Z,5.93
2018-08-23T08:27:44.655Z,6.17
2018-08-23T08:30:16.566Z,6.20
2018-08-23T08:32:44.354Z,6.20
2018-08-23T08:35:21.212Z,5.73
2018-08-23T08:37:49.559Z,5.90
2018-08-23T08:40:24.172Z,6.20
2018-08-23T08:42:51.628Z,5.87
2018-08-23T08:45:18.976Z,5.97
2018-08-23T08:47:47.259Z,5.33
2018-08-23T08:50:14.815Z,5.37
2018-08-23T08:52:42.146Z,5.67
2018-08-23T08:55:11.262Z,5.83
2018-08-23T08:57:42.877Z,5.30
2018-08-23T09:00:10.604Z,5.43
2018-08-23T09:02:37.914Z,4.43
2018-08-23T09:05:05.350Z,4.53
2018-08-23T09:07:33.837Z,4.43
2018-08-23T09:10:01.232Z,4.93
2018-08-23T09:12:29.527Z,4.37
2018-08-23T09:14:56.801Z,5.30
2018-08-23T09:17:35.809Z,4.77
2018-08-23T09:20:05.087Z,4.90
2018-08-23T09:22:37.487Z,4.80
2018-08-23T09:25:05.971Z,3.63
2018-08-23T09:27:33.251Z,3.90
2018-08-23T09:30:00.653Z,4.40
2018-08-23T09:32:28.821Z,4.57
2018-08-23T09:34:58.904Z,4.00
2018-08-23T09:37:26.452Z,4.70
2018-08-23T09:39:53.806Z,4.10
2018-08-23T09:42:21.092Z,3.87
2018-08-23T09:44:58.019Z,4.30
2018-08-23T09:47:25.270Z,4.53
2018-08-23T09:49:52.885Z,3.90
2018-08-23T09:52:24.200Z,4.17
2018-08-23T09:54:51.425Z,6.30
2018-08-23T09:57:18.768Z,5.17
2018-08-23T09:59:50.376Z,4.47
2018-08-23T10:02:22.931Z,4.37
2018-08-23T10:04:56.668Z,4.33
2018-08-23T10:07:29.537Z,4.87
2018-08-23T10:10:02.430Z,4.80
2018-08-23T10:12:35.448Z,4.40
2018-08-23T10:15:08.266Z,4.90
2018-08-23T10:17:40.926Z,4.80
2018-08-23T10:20:22.371Z,4.30
2018-08-23T10:22:54.665Z,4.70
2018-08-23T10:25:31.606Z,4.57
2018-08-23T10:27:59.218Z,4.63
2018-08-23T10:30:27.463Z,4.20
2018-08-23T10:32:54.768Z,4.57
2018-08-23T10:35:22.228Z,4.60
2018-08-23T10:37:49.573Z,4.33
2018-08-23T10:40:16.981Z,4.17
2018-08-23T10:42:44.349Z,3.97
2018-08-23T10:45:12.117Z,4.13
2018-08-23T10:47:44.872Z,3.77
2018-08-23T10:50:12.225Z,3.63
2018-08-23T10:52:39.794Z,3.97
2018-08-23T10:55:07.263Z,3.17
2018-08-23T10:57:34.612Z,3.63
2018-08-23T11:00:01.954Z,3.57
2018-08-23T11:02:29.302Z,3.40
2018-08-23T11:04:56.604Z,4.00
2018-08-23T11:07:28.206Z,3.63
2018-08-23T11:10:00.915Z,3.23
2018-08-23T11:12:33.563Z,2.97
2018-08-23T11:15:05.178Z,3.00
2018-08-23T11:17:37.975Z,3.47
2018-08-23T11:21:12.888Z,2.70
2018-08-23T11:23:45.302Z,2.53
2018-08-23T11:26:19.176Z,2.50
2018-08-23T11:28:46.947Z,2.57
2018-08-23T11:31:19.651Z,2.83
2018-08-23T11:33:46.985Z,3.03
2018-08-23T11:36:14.321Z,2.97
2018-08-23T11:38:41.622Z,2.57
2018-08-23T11:41:08.978Z,2.87
2018-08-23T11:43:36.292Z,2.80
2018-08-23T11:46:20.328Z,3.13
2018-08-23T11:48:48.327Z,2.43
2018-08-23T11:51:16.641Z,3.40
2018-08-23T11:53:44.981Z,2.93
2018-08-23T11:56:12.133Z,3.23
2018-08-23T11:58:39.808Z,3.20
2018-08-23T12:01:08.590Z,3.03
2018-08-23T12:03:36.541Z,2.87
2018-08-23T12:06:03.924Z,2.57
2018-08-23T12:08:31.231Z,3.10
2018-08-23T12:10:58.567Z,2.93
2018-08-23T12:13:25.887Z,3.03
2018-08-23T12:15:53.371Z,2.30
2018-08-23T12:18:20.867Z,2.60
2018-08-23T12:20:48.213Z,3.20
2018-08-23T12:23:15.544Z,3.00
2018-08-23T12:25:42.947Z,2.97
2018-08-23T12:28:15.550Z,3.43
2018-08-23T12:30:43.273Z,2.90
2018-08-23T12:33:10.600Z,2.67
2018-08-23T12:35:38.058Z,3.13
2018-08-23T12:39:12.740Z,2.60
2018-08-23T12:41:45.659Z,2.37
2018-08-23T12:44:13.077Z,3.07
2018-08-23T12:46:40.414Z,2.70
2018-08-23T12:49:07.726Z,2.97
2018-08-23T12:51:35.492Z,2.50
2018-08-23T12:54:02.800Z,2.47
2018-08-23T12:56:30.162Z,3.00
2018-08-23T12:58:57.606Z,2.83
2018-08-23T13:01:24.998Z,2.97
2018-08-23T13:03:52.459Z,3.50
2018-08-23T13:06:19.784Z,3.03
2018-08-23T13:08:47.120Z,3.17
2018-08-23T13:11:14.555Z,3.10
2018-08-23T13:13:41.916Z,2.80
2018-08-23T13:16:09.298Z,2.87
2018-08-23T13:18:36.651Z,3.37
2018-08-23T13:21:04.328Z,2.70
2018-08-23T13:23:31.632Z,2.57
2018-08-23T13:25:59.743Z,2.47
2018-08-23T13:28:27.936Z,2.90
2018-08-23T13:30:55.273Z,2.77
2018-08-23T13:33:23.488Z,3.10
2018-08-23T13:35:50.836Z,3.00
2018-08-23T13:38:18.626Z,3.00
2018-08-23T13:40:45.933Z,3.60
2018-08-23T13:43:13.283Z,2.70
2018-08-23T13:45:40.537Z,3.10
2018-08-23T13:48:08.065Z,3.27
2018-08-23T13:50:35.614Z,2.87
2018-08-23T13:53:03.049Z,3.37
2018-08-23T13:55:30.359Z,2.97
2018-08-23T13:57:57.815Z,3.00
2018-08-23T14:00:30.606Z,3.10
2018-08-23T14:02:58.433Z,3.20
2018-08-23T14:05:25.966Z,3.30
2018-08-23T14:07:53.346Z,2.80
2018-08-23T14:10:20.657Z,3.03
2018-08-23T14:12:48.072Z,2.67
2018-08-23T14:15:20.718Z,3.23
2018-08-23T14:17:48.320Z,3.03
2018-08-23T14:20:15.647Z,3.50
2018-08-23T14:22:42.979Z,3.13
2018-08-23T14:25:10.375Z,2.80
2018-08-23T14:27:37.738Z,2.77
2018-08-23T14:30:05.146Z,3.33
2018-08-23T14:32:32.603Z,3.40
2018-08-23T14:35:00.038Z,3.10
2018-08-23T14:37:27.379Z,3.00
2018-08-23T14:39:54.796Z,3.00
2018-08-23T14:42:22.139Z,3.30
2018-08-23T14:44:49.511Z,2.93
2018-08-23T14:47:22.204Z,2.83
2018-08-23T14:49:49.678Z,3.00
2018-08-23T14:52:17.037Z,3.23
2018-08-23T14:54:44.358Z,3.20
2018-08-23T14:57:17.163Z,3.00
2018-08-23T14:59:44.995Z,2.93
2018-08-23T15:02:12.440Z,2.97
2018-08-23T15:04:44.046Z,3.13
2018-08-23T15:07:11.370Z,4.50
2018-08-23T15:09:38.714Z,3.90
2018-08-23T15:12:06.053Z,3.70
2018-08-23T15:14:33.714Z,3.47
2018-08-23T15:17:01.078Z,4.23
2018-08-23T15:19:28.363Z,3.60
2018-08-23T15:21:55.765Z,4.17
2018-08-23T15:24:23.070Z,3.67
2018-08-23T15:26:50.945Z,3.90
2018-08-23T15:29:18.114Z,3.60
2018-08-23T15:31:46.062Z,3.97
2018-08-23T15:34:13.383Z,3.87
2018-08-23T15:36:40.845Z,3.70
2018-08-23T15:39:09.133Z,3.67
2018-08-23T15:41:36.606Z,3.50
2018-08-23T15:44:03.951Z,4.37
2018-08-23T15:46:36.750Z,3.83
2018-08-23T15:49:04.038Z,4.60
2018-08-23T15:51:31.397Z,3.97
2018-08-23T15:53:59.290Z,4.00
2018-08-23T15:56:26.626Z,4.40
2018-08-23T15:58:54.148Z,4.80
2018-08-23T16:01:22.260Z,4.87
2018-08-23T16:03:49.584Z,4.40
2018-08-23T16:06:16.984Z,4.10
2018-08-23T16:08:49.746Z,4.23
2018-08-23T16:11:17.061Z,4.70
2018-08-23T16:13:44.436Z,4.10
2018-08-23T16:16:17.081Z,4.40
2018-08-23T16:18:49.788Z,4.67
2018-08-23T16:21:21.464Z,4.30
2018-08-23T16:23:48.877Z,4.00
2018-08-23T16:26:16.268Z,4.80
2018-08-23T16:28:43.934Z,4.50
2018-08-23T16:31:11.571Z,3.90
2018-08-23T16:33:38.919Z,3.73
2018-08-23T16:36:06.231Z,4.30
2018-08-23T16:38:33.562Z,4.00
2018-08-23T16:41:00.942Z,4.20
2018-08-23T16:43:28.323Z,3.90
2018-08-23T16:45:58.713Z,3.93
2018-08-23T16:48:26.161Z,4.20
2018-08-23T16:50:53.410Z,3.87
2018-08-23T16:53:20.805Z,4.10
2018-08-23T16:55:48.161Z,4.20
2018-08-23T16:58:15.482Z,4.70
2018-08-23T17:00:42.816Z,4.23
2018-08-23T17:03:10.186Z,4.00
2018-08-23T17:05:37.509Z,4.23
2018-08-23T17:08:05.006Z,4.10
2018-08-23T17:10:32.497Z,4.67
2018-08-23T17:12:59.898Z,4.53
2018-08-23T17:15:31.537Z,4.30
2018-08-23T17:17:58.938Z,4.30
2018-08-23T17:20:26.289Z,3.90
2018-08-23T17:22:54.212Z,4.23
2018-08-23T17:25:22.010Z,4.30
2018-08-23T17:27:49.369Z,4.97
2018-08-23T17:30:16.718Z,4.00
2018-08-23T17:32:44.079Z,4.57
2018-08-23T17:35:11.391Z,5.10
2018-08-23T17:37:38.761Z,4.70
2018-08-23T17:40:06.162Z,4.70
2018-08-23T17:42:38.857Z,5.03
2018-08-23T17:45:06.400Z,4.80
2018-08-23T17:47:33.739Z,4.50
2018-08-23T17:50:01.118Z,4.40
2018-08-23T17:52:39.294Z,5.30
2018-08-23T17:55:06.772Z,4.97
2018-08-23T17:57:34.121Z,5.00
2018-08-23T18:00:02.671Z,4.80
2018-08-23T18:02:30.067Z,4.10
2018-08-23T18:04:57.387Z,4.47
2018-08-23T18:07:24.781Z,4.13
2018-08-23T18:09:52.138Z,4.50
2018-08-23T18:12:19.551Z,4.10
2018-08-23T18:14:46.857Z,4.27
2018-08-23T18:17:14.235Z,3.60
2018-08-23T18:19:41.891Z,4.10
2018-08-23T18:22:09.268Z,3.77
2018-08-23T18:24:36.568Z,3.33
2018-08-23T18:27:03.970Z,3.63
2018-08-23T18:29:31.381Z,3.50
2018-08-23T18:31:58.736Z,3.50
2018-08-23T18:34:26.129Z,3.63
2018-08-23T18:36:53.524Z,3.33
2018-08-23T18:39:20.889Z,3.23
2018-08-23T18:41:48.254Z,3.67
2018-08-23T18:44:15.668Z,3.60
2018-08-23T18:46:43.057Z,3.77
2018-08-23T18:49:10.406Z,3.20
2018-08-23T18:51:37.855Z,3.33
2018-08-23T18:54:05.451Z,3.70
2018-08-23T18:56:32.733Z,3.57
2018-08-23T18:59:00.117Z,3.23
2018-08-23T19:01:27.788Z,3.67
2018-08-23T19:03:55.158Z,3.93
2018-08-23T19:06:27.933Z,3.23
2018-08-23T19:08:55.588Z,3.60
2018-08-23T19:11:23.571Z,4.20
2018-08-23T19:13:50.947Z,3.97
2018-08-23T19:16:23.604Z,3.50
2018-08-23T19:18:51.059Z,4.20
2018-08-23T19:21:18.461Z,3.33
2018-08-23T19:23:46.212Z,3.80
2018-08-23T19:26:13.600Z,4.10
2018-08-23T19:28:40.949Z,4.20
2018-08-23T19:31:08.581Z,3.70
2018-08-23T19:33:35.902Z,4.30
2018-08-23T19:36:03.287Z,4.30
2018-08-23T19:38:30.687Z,4.47
2018-08-23T19:40:58.416Z,4.50
2018-08-23T19:46:14.775Z,4.20
2018-08-23T19:48:42.921Z,5.30
2018-08-23T19:51:10.273Z,4.87
2018-08-23T19:53:37.667Z,4.77
2018-08-23T19:56:05.017Z,4.60
2018-08-23T19:58:32.388Z,4.63
2018-08-23T20:00:59.742Z,5.57
2018-08-23T20:03:27.490Z,4.87
2018-08-23T20:05:54.946Z,4.63
2018-08-23T20:08:22.324Z,5.23
2018-08-23T20:10:49.676Z,5.57
2018-08-23T20:13:18.038Z,5.77
2018-08-23T20:15:45.596Z,4.80
2018-08-23T20:18:13.038Z,5.03
2018-08-23T20:20:40.481Z,4.90
2018-08-23T20:23:07.877Z,4.57
2018-08-23T20:25:35.488Z,4.03
2018-08-23T20:28:02.944Z,4.07
2018-08-23T20:30:30.266Z,4.00
2018-08-23T20:32:57.733Z,4.20
2018-08-23T20:35:25.077Z,4.17
2018-08-23T20:37:52.421Z,3.93
2018-08-23T20:40:20.052Z,4.00
2018-08-23T20:42:47.421Z,3.50
2018-08-23T20:45:14.811Z,4.10
2018-08-23T20:47:42.231Z,4.27
2018-08-23T20:50:09.567Z,3.77
2018-08-23T20:52:36.941Z,4.70
2018-08-23T20:55:04.446Z,4.47
2018-08-23T20:57:31.785Z,4.30
2018-08-23T20:59:59.197Z,4.27
2018-08-23T21:02:26.541Z,4.40
2018-08-23T21:04:53.820Z,4.20
2018-08-23T21:07:21.189Z,4.10
2018-08-23T21:09:48.550Z,4.40
2018-08-23T21:12:15.889Z,4.57
2018-08-23T21:14:43.501Z,4.50
2018-08-23T21:17:10.798Z,5.00
2018-08-23T21:19:38.223Z,4.43
2018-08-23T21:22:05.694Z,4.40
2018-08-23T21:24:33.035Z,4.37
2018-08-23T21:27:00.497Z,4.03
2018-08-23T21:29:27.831Z,4.77
2018-08-23T21:31:55.244Z,4.50
2018-08-23T21:34:22.665Z,4.67
2018-08-23T21:36:50.066Z,4.70
2018-08-23T21:39:17.400Z,4.70
2018-08-23T21:41:44.807Z,4.50
2018-08-23T21:44:12.195Z,4.80
2018-08-23T21:46:39.598Z,4.40
2018-08-23T21:49:06.966Z,4.30
2018-08-23T21:51:34.309Z,4.67
2018-08-23T21:54:01.727Z,4.63
2018-08-23T21:56:29.113Z,4.37
2018-08-23T21:58:56.469Z,4.40
2018-08-23T22:01:23.793Z,4.50
2018-08-23T22:03:51.148Z,5.10
2018-08-23T22:06:18.519Z,5.23
2018-08-23T22:08:45.855Z,4.97
2018-08-23T22:11:13.466Z,4.50
2018-08-23T22:13:40.876Z,4.63
2018-08-23T22:16:08.275Z,4.80
2018-08-23T22:18:35.777Z,5.50
2018-08-23T22:21:03.163Z,5.00
2018-08-23T22:23:30.519Z,4.70
2018-08-23T22:25:57.863Z,5.00
2018-08-23T22:28:25.940Z,4.77
2018-08-23T22:30:54.043Z,4.77
2018-08-23T22:33:21.342Z,5.77
2018-08-23T22:35:48.741Z,4.70
2018-08-23T22:38:16.125Z,4.97
2018-08-23T22:40:43.491Z,5.27
2018-08-23T22:43:10.829Z,5.00
2018-08-23T22:45:38.126Z,5.30
2018-08-23T22:48:05.601Z,4.70
2018-08-23T22:50:32.895Z,4.90
2018-08-23T22:53:00.218Z,4.97
2018-08-23T22:55:27.506Z,5.10
2018-08-23T22:57:54.850Z,5.20
2018-08-23T23:00:27.545Z,5.60
2018-08-23T23:02:54.885Z,4.60
2018-08-23T23:05:22.295Z,4.60
2018-08-23T23:07:49.671Z,5.13
2018-08-23T23:10:16.974Z,5.07
2018-08-23T23:12:44.287Z,5.43
2018-08-23T23:15:16.959Z,5.00
2018-08-23T23:17:44.307Z,4.90
2018-08-23T23:20:11.660Z,4.87
2018-08-23T23:22:39.064Z,5.40
2018-08-23T23:25:06.439Z,5.20
2018-08-23T23:27:34.109Z,5.67
2018-08-23T23:30:01.502Z,5.50
2018-08-23T23:32:28.815Z,4.90
2018-08-23T23:34:56.345Z,5.67
2018-08-23T23:37:24.265Z,5.67
2018-08-23T23:39:51.660Z,4.93
2018-08-23T23:42:19.469Z,5.00
2018-08-23T23:44:46.900Z,4.67
2018-08-23T23:47:14.211Z,5.60
2018-08-23T23:49:41.620Z,5.23
2018-08-23T23:52:08.958Z,4.30
2018-08-23T23:54:36.401Z,6.17
2018-08-23T23:57:03.780Z,5.90
2018-08-23T23:59:31.101Z,5.33
